createdAt,value
2022-09-26T00:01:31.321Z,100.00
2022-09-26T00:03:58.934Z,100.00
2022-09-26T00:06:25.342Z,100.00
2022-09-26T00:08:51.684Z,100.00
2022-09-26T00:11:18.825Z,100.00
2022-09-26T00:13:45.151Z,100.00
2022-09-26T00:16:12.003Z,100.00
2022-09-26T00:18:38.778Z,100.00
2022-09-26T00:21:05.904Z,100.00
2022-09-26T00:23:32.245Z,100.00
2022-09-26T00:25:58.624Z,100.00
2022-09-26T00:28:24.962Z,100.00
2022-09-26T00:30:51.333Z,100.00
2022-09-26T00:33:17.695Z,100.00
2022-09-26T00:35:51.155Z,100.00
2022-09-26T00:38:17.674Z,100.00
2022-09-26T00:40:44.169Z,100.00
2022-09-26T00:43:31.153Z,100.00
2022-09-26T00:46:06.354Z,100.00
2022-09-26T00:48:32.858Z,100.00
2022-09-26T00:50:59.169Z,100.00
2022-09-26T00:53:26.149Z,100.00
2022-09-26T00:56:00.030Z,100.00
2022-09-26T00:58:34.024Z,100.00
2022-09-26T01:01:00.902Z,100.00
2022-09-26T01:03:27.602Z,100.00
2022-09-26T01:05:53.937Z,100.00
2022-09-26T01:08:21.128Z,100.00
2022-09-26T01:10:47.467Z,100.00
2022-09-26T01:13:13.813Z,100.00
2022-09-26T01:15:40.249Z,100.00
2022-09-26T01:18:07.604Z,100.00
2022-09-26T01:20:33.964Z,100.00
2022-09-26T01:23:06.421Z,100.00
2022-09-26T01:25:35.876Z,100.00
2022-09-26T01:28:08.166Z,100.00
2022-09-26T01:30:41.580Z,100.00
2022-09-26T01:33:23.397Z,100.00
2022-09-26T01:35:59.095Z,100.00
2022-09-26T01:38:36.082Z,100.00
2022-09-26T01:41:08.348Z,100.00
2022-09-26T01:43:34.618Z,100.00
2022-09-26T01:46:04.381Z,100.00
2022-09-26T01:48:31.149Z,100.00
2022-09-26T01:51:17.675Z,100.00
2022-09-26T01:53:47.136Z,100.00
2022-09-26T01:56:14.617Z,100.00
2022-09-26T01:58:40.894Z,100.00
2022-09-26T02:01:09.668Z,100.00
2022-09-26T02:03:36.720Z,100.00
2022-09-26T02:06:04.261Z,100.00
2022-09-26T02:08:30.544Z,100.00
2022-09-26T02:10:59.774Z,100.00
2022-09-26T02:13:35.787Z,100.00
2022-09-26T02:16:07.025Z,100.00
2022-09-26T02:18:35.074Z,100.00
2022-09-26T02:21:02.148Z,100.00
2022-09-26T02:23:28.701Z,100.00
2022-09-26T02:25:55.090Z,100.00
2022-09-26T02:28:22.001Z,100.00
2022-09-26T02:30:49.153Z,100.00
2022-09-26T02:33:15.507Z,100.00
2022-09-26T02:35:54.704Z,100.00
2022-09-26T02:38:24.935Z,100.00
2022-09-26T02:40:53.107Z,100.00
2022-09-26T02:43:38.691Z,100.00
2022-09-26T02:46:13.936Z,100.00
2022-09-26T02:48:48.820Z,100.00
2022-09-26T02:51:21.152Z,100.00
2022-09-26T02:54:13.821Z,100.00
2022-09-26T02:56:43.593Z,100.00
2022-09-26T02:59:23.363Z,100.00
2022-09-26T03:01:49.658Z,100.00
2022-09-26T03:04:19.415Z,100.00
2022-09-26T03:06:46.718Z,100.00
2022-09-26T03:09:13.120Z,100.00
2022-09-26T03:11:39.557Z,100.00
2022-09-26T03:14:05.942Z,100.00
2022-09-26T03:16:34.229Z,100.00
2022-09-26T03:19:06.047Z,100.00
2022-09-26T03:21:36.162Z,100.00
2022-09-26T03:24:03.400Z,100.00
2022-09-26T03:26:29.730Z,100.00
2022-09-26T03:28:56.752Z,100.00
2022-09-26T03:31:24.779Z,100.00
2022-09-26T03:33:51.974Z,100.00
2022-09-26T03:36:18.316Z,100.00
2022-09-26T03:38:44.701Z,100.00
2022-09-26T03:41:11.028Z,100.00
2022-09-26T03:43:37.353Z,100.00
2022-09-26T03:46:04.277Z,100.00
2022-09-26T03:48:30.976Z,100.00
2022-09-26T03:51:03.919Z,100.00
2022-09-26T03:53:33.706Z,100.00
2022-09-26T03:56:04.242Z,100.00
2022-09-26T03:58:30.619Z,100.00
2022-09-26T04:01:02.225Z,100.00
2022-09-26T04:03:28.609Z,100.00
2022-09-26T04:05:54.927Z,100.00
2022-09-26T04:08:21.264Z,100.00
2022-09-26T04:10:47.567Z,100.00
2022-09-26T04:13:33.701Z,100.00
2022-09-26T04:16:01.404Z,100.00
2022-09-26T04:18:28.232Z,100.00
2022-09-26T04:20:58.668Z,100.00
2022-09-26T04:23:28.291Z,100.00
2022-09-26T04:25:54.668Z,100.00
2022-09-26T04:28:21.010Z,100.00
2022-09-26T04:30:47.319Z,100.00
2022-09-26T04:33:13.659Z,100.00
2022-09-26T04:35:39.992Z,100.00
2022-09-26T04:38:06.309Z,100.00
2022-09-26T04:40:32.756Z,100.00
2022-09-26T04:42:59.212Z,100.00
2022-09-26T04:45:25.563Z,100.00
2022-09-26T04:47:51.917Z,100.00
2022-09-26T04:50:18.271Z,100.00
2022-09-26T04:52:44.689Z,100.00
2022-09-26T04:55:11.058Z,100.00
2022-09-26T04:57:38.055Z,100.00
2022-09-26T05:00:07.068Z,100.00
2022-09-26T05:02:35.503Z,100.00
2022-09-26T05:05:01.858Z,100.00
2022-09-26T05:07:29.399Z,100.00
2022-09-26T05:09:55.725Z,100.00
2022-09-26T05:12:22.203Z,100.00
2022-09-26T05:14:48.604Z,100.00
2022-09-26T05:17:15.458Z,100.00
2022-09-26T05:19:43.039Z,100.00
2022-09-26T05:22:10.581Z,100.00
2022-09-26T05:24:55.685Z,100.00
2022-09-26T05:27:23.944Z,100.00
2022-09-26T05:29:52.181Z,100.00
2022-09-26T05:32:20.655Z,100.00
2022-09-26T05:34:47.123Z,100.00
2022-09-26T05:37:13.459Z,100.00
2022-09-26T05:40:03.004Z,100.00
2022-09-26T05:42:29.378Z,100.00
2022-09-26T05:44:55.685Z,100.00
2022-09-26T05:47:21.987Z,100.00
2022-09-26T05:49:48.898Z,100.00
2022-09-26T05:52:15.210Z,100.00
2022-09-26T05:54:41.540Z,100.00
2022-09-26T05:57:07.861Z,100.00
2022-09-26T05:59:34.616Z,100.00
2022-09-26T06:02:00.955Z,100.00
2022-09-26T06:04:29.347Z,100.00
2022-09-26T06:06:55.769Z,100.00
2022-09-26T06:09:23.077Z,100.00
2022-09-26T06:11:49.437Z,100.00
2022-09-26T06:14:15.785Z,100.00
2022-09-26T06:16:42.221Z,100.00
2022-09-26T06:19:08.630Z,100.00
2022-09-26T06:21:35.176Z,100.00
2022-09-26T06:24:01.578Z,100.00
2022-09-26T06:26:28.970Z,100.00
2022-09-26T06:29:00.148Z,100.00
2022-09-26T06:31:26.754Z,100.00
2022-09-26T06:33:56.325Z,100.00
2022-09-26T06:36:22.943Z,100.00
2022-09-26T06:38:51.633Z,100.00
2022-09-26T06:41:18.030Z,100.00
2022-09-26T06:43:47.655Z,100.00
2022-09-26T06:46:14.812Z,100.00
2022-09-26T06:48:41.247Z,100.00
2022-09-26T06:51:08.202Z,100.00
2022-09-26T06:53:37.572Z,100.00
2022-09-26T06:56:05.990Z,100.00
2022-09-26T06:58:32.323Z,100.00
2022-09-26T07:00:58.981Z,100.00
2022-09-26T07:03:26.564Z,100.00
2022-09-26T07:05:58.907Z,100.00
2022-09-26T07:08:43.292Z,100.00
2022-09-26T07:11:32.838Z,100.00
2022-09-26T07:14:00.257Z,100.00
2022-09-26T07:16:26.940Z,100.00
2022-09-26T07:18:53.461Z,100.00
2022-09-26T07:21:19.839Z,100.00
2022-09-26T07:23:46.478Z,100.00
2022-09-26T07:26:12.791Z,100.00
2022-09-26T07:28:39.155Z,100.00
2022-09-26T07:31:05.682Z,100.00
2022-09-26T07:33:32.087Z,100.00
2022-09-26T07:36:03.174Z,100.00
2022-09-26T07:38:31.716Z,100.00
2022-09-26T07:40:59.195Z,100.00
2022-09-26T07:43:44.979Z,100.00
2022-09-26T07:46:30.609Z,100.00
2022-09-26T07:49:15.812Z,100.00
2022-09-26T07:51:42.329Z,100.00
2022-09-26T07:54:08.733Z,100.00
2022-09-26T07:56:35.137Z,100.00
2022-09-26T07:59:05.329Z,100.00
2022-09-26T08:01:31.773Z,100.00
2022-09-26T08:03:58.536Z,100.00
2022-09-26T08:06:25.113Z,100.00
2022-09-26T08:08:58.184Z,100.00
2022-09-26T08:11:24.827Z,100.00
2022-09-26T08:13:51.159Z,100.00
2022-09-26T08:16:23.812Z,100.00
2022-09-26T08:18:50.740Z,100.00
2022-09-26T08:21:17.954Z,100.00
2022-09-26T08:23:44.522Z,100.00
2022-09-26T08:26:10.854Z,100.00
2022-09-26T08:28:37.446Z,100.00
2022-09-26T08:31:05.120Z,100.00
2022-09-26T08:33:34.379Z,100.00
2022-09-26T08:36:07.354Z,100.00
2022-09-26T08:38:33.810Z,100.00
2022-09-26T08:41:16.385Z,100.00
2022-09-26T08:43:45.622Z,99.41
2022-09-26T08:46:36.480Z,99.38
2022-09-26T08:49:16.722Z,96.17
2022-09-26T08:51:45.183Z,93.08
2022-09-26T08:54:25.949Z,93.73
2022-09-26T08:56:53.191Z,90.23
2022-09-26T08:59:25.530Z,87.19
2022-09-26T09:01:52.471Z,87.71
2022-09-26T09:04:35.573Z,88.11
2022-09-26T09:07:04.660Z,85.17
2022-09-26T09:09:30.991Z,86.02
2022-09-26T09:12:04.360Z,85.75
2022-09-26T09:14:41.006Z,86.11
2022-09-26T09:17:10.865Z,85.83
2022-09-26T09:19:56.049Z,86.29
2022-09-26T09:22:32.311Z,85.54
2022-09-26T09:24:59.701Z,86.51
2022-09-26T09:30:22.333Z,85.60
2022-09-26T09:32:51.715Z,84.99
2022-09-26T09:35:19.343Z,85.21
2022-09-26T09:37:52.131Z,86.72
2022-09-26T09:40:26.614Z,85.13
2022-09-26T09:42:54.756Z,84.14
2022-09-26T09:45:24.159Z,81.07
2022-09-26T09:47:50.492Z,82.47
2022-09-26T09:50:22.637Z,82.10
2022-09-26T09:52:52.008Z,82.23
2022-09-26T09:55:25.567Z,81.83
2022-09-26T09:58:01.156Z,81.14
2022-09-26T10:00:28.097Z,83.15
2022-09-26T10:02:54.790Z,83.20
2022-09-26T10:05:25.512Z,80.17
2022-09-26T10:07:58.057Z,82.32
2022-09-26T10:10:28.559Z,80.93
2022-09-26T10:12:55.761Z,81.79
2022-09-26T10:15:26.137Z,81.91
2022-09-26T10:20:55.550Z,81.42
2022-09-26T10:23:39.569Z,81.29
2022-09-26T10:26:06.580Z,81.34
2022-09-26T10:28:35.354Z,81.45
2022-09-26T10:31:03.555Z,81.57
2022-09-26T10:33:30.807Z,80.92
2022-09-26T10:36:05.011Z,81.49
2022-09-26T10:38:31.330Z,81.71
2022-09-26T10:40:59.343Z,83.17
2022-09-26T10:43:32.416Z,84.15
2022-09-26T10:46:09.142Z,82.45
2022-09-26T10:48:49.063Z,82.03
2022-09-26T10:51:21.534Z,81.81
2022-09-26T10:53:48.570Z,82.40
2022-09-26T10:56:20.580Z,83.66
2022-09-26T10:58:47.247Z,83.80
2022-09-26T11:01:19.106Z,83.92
2022-09-26T11:03:45.813Z,81.83
2022-09-26T11:06:31.071Z,82.64
2022-09-26T11:08:58.393Z,85.18
2022-09-26T11:11:24.973Z,86.19
2022-09-26T11:14:08.483Z,85.61
2022-09-26T11:16:39.384Z,88.04
2022-09-26T11:19:08.132Z,86.46
2022-09-26T11:21:53.285Z,87.71
2022-09-26T11:24:27.552Z,88.49
2022-09-26T11:26:53.839Z,89.32
2022-09-26T11:29:20.123Z,88.80
2022-09-26T11:31:46.450Z,90.32
2022-09-26T11:34:15.108Z,90.65
2022-09-26T11:37:04.918Z,90.58
2022-09-26T11:39:35.307Z,89.90
2022-09-26T11:42:01.765Z,92.00
2022-09-26T11:44:43.812Z,91.57
2022-09-26T11:47:19.205Z,92.01
2022-09-26T11:49:50.042Z,91.65
2022-09-26T11:52:26.769Z,93.56
2022-09-26T11:55:12.488Z,92.61
2022-09-26T11:57:45.016Z,93.07
2022-09-26T12:00:13.180Z,93.46
2022-09-26T12:03:05.947Z,93.09
2022-09-26T12:05:35.325Z,93.01
2022-09-26T12:08:09.478Z,92.76
2022-09-26T12:10:53.221Z,92.94
2022-09-26T12:13:29.679Z,92.03
2022-09-26T12:15:58.697Z,93.17
2022-09-26T12:18:25.051Z,90.51
2022-09-26T12:21:01.189Z,92.03
2022-09-26T12:23:27.456Z,90.43
2022-09-26T12:26:13.389Z,91.56
2022-09-26T12:28:41.067Z,91.03
2022-09-26T12:31:13.100Z,90.00
2022-09-26T12:33:53.514Z,90.50
2022-09-26T12:36:40.435Z,91.41
2022-09-26T12:39:13.830Z,91.68
2022-09-26T12:41:48.011Z,90.61
2022-09-26T12:44:27.108Z,91.72
2022-09-26T12:47:05.600Z,91.88
2022-09-26T12:49:37.914Z,90.87
2022-09-26T12:52:27.593Z,92.20
2022-09-26T12:55:12.972Z,92.01
2022-09-26T12:57:43.057Z,92.93
2022-09-26T13:00:10.425Z,93.51
2022-09-26T13:02:42.965Z,94.90
2022-09-26T13:05:22.547Z,94.97
2022-09-26T13:07:54.963Z,95.03
2022-09-26T13:10:25.090Z,95.90
2022-09-26T13:12:51.347Z,96.64
2022-09-26T13:15:23.090Z,97.59
2022-09-26T13:17:52.243Z,96.82
2022-09-26T13:20:19.926Z,97.63
2022-09-26T13:22:46.230Z,97.68
2022-09-26T13:25:19.893Z,97.77
2022-09-26T13:27:52.270Z,98.47
2022-09-26T13:30:19.454Z,99.02
2022-09-26T13:32:47.503Z,99.87
2022-09-26T13:35:23.545Z,99.31
2022-09-26T13:38:03.982Z,100.00
2022-09-26T13:40:51.698Z,100.00
2022-09-26T13:43:44.356Z,100.00
2022-09-26T13:46:12.817Z,100.00
2022-09-26T13:48:42.165Z,100.00
2022-09-26T13:51:11.618Z,100.00
2022-09-26T13:53:40.407Z,100.00
2022-09-26T13:56:27.498Z,100.00
2022-09-26T13:59:12.243Z,100.00
2022-09-26T14:01:39.045Z,100.00
2022-09-26T14:04:24.280Z,100.00
2022-09-26T14:07:02.835Z,100.00
2022-09-26T14:09:42.071Z,100.00
2022-09-26T14:12:19.964Z,100.00
2022-09-26T14:15:06.765Z,100.00
2022-09-26T14:17:42.256Z,100.00
2022-09-26T14:20:15.251Z,100.00
2022-09-26T14:22:49.394Z,100.00
2022-09-26T14:25:34.709Z,100.00
2022-09-26T14:28:17.052Z,99.96
2022-09-26T14:31:03.373Z,97.22
2022-09-26T14:33:29.705Z,97.29
2022-09-26T14:36:15.950Z,97.39
2022-09-26T14:38:42.337Z,95.98
2022-09-26T14:41:13.670Z,96.49
2022-09-26T14:43:39.973Z,95.63
2022-09-26T14:46:07.661Z,95.16
2022-09-26T14:48:43.361Z,96.11
2022-09-26T14:51:15.374Z,94.47
2022-09-26T14:54:01.908Z,95.44
2022-09-26T14:56:32.570Z,95.60
2022-09-26T14:59:17.760Z,96.55
2022-09-26T15:01:44.167Z,96.22
2022-09-26T15:04:20.622Z,96.96
2022-09-26T15:06:47.845Z,95.48
2022-09-26T15:09:32.618Z,96.04
2022-09-26T15:11:59.899Z,96.51
2022-09-26T15:14:29.919Z,96.78
2022-09-26T15:16:56.269Z,98.50
2022-09-26T15:19:25.119Z,97.51
2022-09-26T15:21:55.660Z,97.79
2022-09-26T15:24:33.270Z,98.38
2022-09-26T15:27:09.377Z,97.99
2022-09-26T15:29:36.094Z,97.90
2022-09-26T15:32:02.430Z,98.55
2022-09-26T15:34:35.235Z,99.54
2022-09-26T15:37:04.256Z,98.17
2022-09-26T15:39:30.636Z,99.13
2022-09-26T15:42:15.754Z,98.95
2022-09-26T15:44:48.170Z,99.58
2022-09-26T15:47:30.105Z,99.36
2022-09-26T15:50:04.085Z,98.47
2022-09-26T15:52:30.398Z,98.69
2022-09-26T15:54:56.711Z,99.31
2022-09-26T15:57:23.023Z,100.00
2022-09-26T15:59:49.334Z,99.71
2022-09-26T16:02:20.286Z,100.00
2022-09-26T16:04:46.638Z,100.00
2022-09-26T16:07:17.561Z,100.00
2022-09-26T16:09:44.121Z,100.00
2022-09-26T16:12:16.580Z,100.00
2022-09-26T16:14:46.715Z,100.00
2022-09-26T16:17:15.759Z,100.00
2022-09-26T16:19:46.349Z,100.00
2022-09-26T16:22:36.688Z,100.00
2022-09-26T16:25:15.155Z,100.00
2022-09-26T16:27:41.467Z,100.00
2022-09-26T16:30:23.685Z,100.00
2022-09-26T16:32:50.789Z,100.00
2022-09-26T16:35:18.140Z,100.00
2022-09-26T16:37:44.464Z,100.00
2022-09-26T16:40:17.380Z,100.00
2022-09-26T16:42:46.252Z,100.00
2022-09-26T16:45:12.802Z,100.00
2022-09-26T16:47:42.900Z,100.00
2022-09-26T16:50:31.087Z,100.00
2022-09-26T16:52:57.665Z,100.00
2022-09-26T16:55:24.323Z,100.00
2022-09-26T16:57:51.863Z,100.00
2022-09-26T17:00:37.499Z,100.00
2022-09-26T17:03:04.063Z,100.00
2022-09-26T17:05:30.459Z,100.00
2022-09-26T17:07:56.778Z,100.00
2022-09-26T17:10:23.635Z,100.00
2022-09-26T17:12:53.437Z,100.00
2022-09-26T17:15:22.240Z,100.00
2022-09-26T17:17:48.677Z,100.00
2022-09-26T17:20:15.658Z,100.00
2022-09-26T17:22:42.051Z,100.00
2022-09-26T17:25:11.343Z,100.00
2022-09-26T17:27:39.209Z,100.00
2022-09-26T17:30:07.333Z,100.00
2022-09-26T17:32:37.237Z,100.00
2022-09-26T17:35:04.827Z,100.00
2022-09-26T17:37:31.456Z,100.00
2022-09-26T17:39:57.851Z,100.00
2022-09-26T17:42:25.080Z,100.00
2022-09-26T17:44:51.411Z,100.00
2022-09-26T17:47:18.162Z,100.00
2022-09-26T17:49:46.351Z,100.00
2022-09-26T17:52:18.481Z,100.00
2022-09-26T17:54:45.554Z,100.00
2022-09-26T17:57:12.597Z,100.00
2022-09-26T17:59:42.168Z,100.00
2022-09-26T18:02:24.290Z,100.00
2022-09-26T18:04:52.126Z,100.00
2022-09-26T18:07:18.471Z,100.00
2022-09-26T18:09:44.837Z,100.00
2022-09-26T18:12:13.883Z,100.00
2022-09-26T18:14:40.946Z,100.00
2022-09-26T18:17:09.256Z,100.00
2022-09-26T18:19:36.658Z,100.00
2022-09-26T18:22:02.995Z,100.00
2022-09-26T18:24:29.338Z,100.00
2022-09-26T18:27:00.822Z,100.00
2022-09-26T18:29:28.915Z,100.00
2022-09-26T18:31:55.231Z,100.00
2022-09-26T18:34:21.530Z,100.00
2022-09-26T18:36:51.897Z,100.00
2022-09-26T18:39:18.354Z,100.00
2022-09-26T18:41:45.200Z,100.00
2022-09-26T18:44:14.554Z,100.00
2022-09-26T18:46:44.365Z,100.00
2022-09-26T18:49:10.923Z,100.00
2022-09-26T18:51:37.268Z,100.00
2022-09-26T18:54:10.724Z,100.00
2022-09-26T18:56:56.461Z,100.00
2022-09-26T18:59:26.771Z,100.00
2022-09-26T19:01:55.567Z,100.00
2022-09-26T19:04:22.163Z,100.00
2022-09-26T19:06:49.427Z,100.00
2022-09-26T19:09:16.557Z,100.00
2022-09-26T19:11:42.963Z,100.00
2022-09-26T19:14:16.203Z,100.00
2022-09-26T19:16:43.142Z,100.00
2022-09-26T19:19:09.611Z,100.00
2022-09-26T19:21:39.008Z,100.00
2022-09-26T19:24:07.016Z,100.00
2022-09-26T19:26:37.743Z,100.00
2022-09-26T19:29:06.838Z,100.00
2022-09-26T19:31:35.255Z,100.00
2022-09-26T19:34:02.010Z,100.00
2022-09-26T19:36:28.587Z,100.00
2022-09-26T19:38:55.020Z,100.00
2022-09-26T19:41:22.081Z,100.00
2022-09-26T19:43:48.405Z,100.00
2022-09-26T19:46:17.018Z,100.00
2022-09-26T19:48:43.396Z,100.00
2022-09-26T19:51:10.783Z,100.00
2022-09-26T19:53:37.085Z,100.00
2022-09-26T19:56:04.085Z,100.00
2022-09-26T19:58:30.949Z,100.00
2022-09-26T20:00:57.829Z,100.00
2022-09-26T20:03:29.274Z,100.00
2022-09-26T20:05:55.597Z,100.00
2022-09-26T20:08:22.867Z,100.00
2022-09-26T20:10:49.567Z,100.00
2022-09-26T20:13:15.961Z,100.00
2022-09-26T20:15:42.306Z,100.00
2022-09-26T20:18:11.480Z,100.00
2022-09-26T20:20:38.291Z,100.00
2022-09-26T20:23:04.627Z,100.00
2022-09-26T20:25:31.365Z,100.00
2022-09-26T20:27:57.765Z,100.00
2022-09-26T20:30:42.956Z,100.00
2022-09-26T20:33:09.438Z,100.00
2022-09-26T20:35:36.912Z,100.00
2022-09-26T20:38:03.721Z,100.00
2022-09-26T20:40:30.160Z,100.00
2022-09-26T20:42:57.643Z,100.00
2022-09-26T20:45:29.623Z,100.00
2022-09-26T20:47:57.466Z,100.00
2022-09-26T20:50:23.781Z,100.00
2022-09-26T20:52:50.106Z,100.00
2022-09-26T20:55:17.988Z,100.00
2022-09-26T20:57:44.451Z,100.00
2022-09-26T21:00:17.780Z,100.00
2022-09-26T21:02:44.481Z,100.00
2022-09-26T21:05:14.606Z,100.00
2022-09-26T21:07:40.949Z,100.00
2022-09-26T21:10:26.111Z,100.00
2022-09-26T21:12:52.459Z,100.00
2022-09-26T21:15:18.977Z,100.00
2022-09-26T21:17:45.828Z,100.00
2022-09-26T21:20:38.491Z,100.00
2022-09-26T21:23:04.870Z,100.00
2022-09-26T21:25:31.324Z,100.00
2022-09-26T21:27:58.732Z,100.00
2022-09-26T21:30:25.120Z,100.00
2022-09-26T21:32:51.871Z,100.00
2022-09-26T21:35:18.376Z,100.00
2022-09-26T21:37:45.281Z,100.00
2022-09-26T21:40:11.618Z,100.00
2022-09-26T21:42:38.015Z,100.00
2022-09-26T21:45:05.682Z,100.00
2022-09-26T21:47:32.113Z,100.00
2022-09-26T21:49:58.432Z,100.00
2022-09-26T21:52:24.804Z,100.00
2022-09-26T21:54:51.123Z,100.00
2022-09-26T21:57:18.671Z,100.00
2022-09-26T21:59:45.043Z,100.00
2022-09-26T22:02:11.498Z,100.00
2022-09-26T22:04:37.898Z,100.00
2022-09-26T22:07:04.227Z,100.00
2022-09-26T22:09:30.536Z,100.00
2022-09-26T22:11:56.898Z,100.00
2022-09-26T22:14:23.247Z,100.00
2022-09-26T22:16:49.672Z,100.00
2022-09-26T22:19:16.600Z,100.00
2022-09-26T22:21:43.134Z,100.00
2022-09-26T22:24:10.413Z,100.00
2022-09-26T22:26:36.926Z,100.00
2022-09-26T22:29:03.225Z,100.00
2022-09-26T22:31:29.550Z,100.00
2022-09-26T22:33:56.577Z,100.00
2022-09-26T22:36:22.911Z,100.00
2022-09-26T22:38:49.995Z,100.00
2022-09-26T22:41:16.322Z,100.00
2022-09-26T22:43:42.701Z,100.00
2022-09-26T22:46:10.448Z,100.00
2022-09-26T22:48:37.731Z,100.00
2022-09-26T22:51:04.313Z,100.00
2022-09-26T22:53:31.201Z,100.00
2022-09-26T22:55:58.213Z,100.00
2022-09-26T22:58:25.157Z,100.00
2022-09-26T23:00:51.769Z,100.00
2022-09-26T23:03:18.181Z,100.00
2022-09-26T23:05:46.350Z,100.00
2022-09-26T23:08:12.661Z,100.00
2022-09-26T23:10:38.967Z,100.00
2022-09-26T23:13:05.319Z,100.00
2022-09-26T23:15:31.635Z,100.00
2022-09-26T23:17:57.941Z,100.00
2022-09-26T23:20:24.253Z,100.00
2022-09-26T23:22:50.577Z,100.00
2022-09-26T23:25:16.954Z,100.00
2022-09-26T23:27:43.366Z,100.00
2022-09-26T23:30:09.923Z,100.00
2022-09-26T23:32:36.282Z,100.00
2022-09-26T23:35:02.598Z,100.00
2022-09-26T23:37:28.968Z,100.00
2022-09-26T23:39:55.299Z,100.00
2022-09-26T23:42:21.872Z,100.00
2022-09-26T23:44:48.204Z,100.00
2022-09-26T23:47:14.534Z,100.00
2022-09-26T23:49:41.080Z,100.00
2022-09-26T23:52:07.406Z,100.00
2022-09-26T23:54:33.714Z,100.00
2022-09-26T23:57:00.068Z,100.00
2022-09-26T23:59:26.502Z,100.00
